WetterOnline ( https://www.wetteronline.ch )

Wetter aktuell Regen

Aktuelles Wetter: Zwiesel (613m)

6-stündlich | Neueste Meldungen
Ortszeit Temperatur Wetter
Di, 07.07. 20:00 16.3° C leicht bewölkt
Di, 07.07. 14:00 16.3° C wolkig
Di, 07.07. 8:00 10.6° C wolkenlos
Di, 07.07. 2:00 8.6° C wolkenlos
Mo, 06.07. 20:00 16.0° C leicht bewölkt
Mo, 06.07. 14:00 14.8° C leichter Regen
Mo, 06.07. 8:00 17.5° C bewölkt
Mo, 06.07. 2:00 14.9° C leicht bewölkt
Ortszeit Temperatur Wetter
Di, 07.07. 20:00 16.3° C leicht bewölkt
Di, 07.07. 19:50 16.3° C leicht bewölkt
Di, 07.07. 19:40 16.3° C leicht bewölkt
Di, 07.07. 19:30 17.1° C wolkenlos
Di, 07.07. 19:20 17.1° C wolkenlos
Di, 07.07. 19:10 17.5° C wolkenlos
Di, 07.07. 19:00 17.1° C fast wolkenlos
Di, 07.07. 18:30 17.0° C leicht bewölkt
Di, 07.07. 18:00 17.3° C wolkig
Di, 07.07. 17:30 17.7° C wolkig
Di, 07.07. 17:00 16.8° C leicht bewölkt
Ortszeit Relative Feuchte Sichtweite
Di, 07.07. 20:00 50% 50 km
Di, 07.07. 14:00 50% 55 km
Di, 07.07. 8:00 70% >70 km
Di, 07.07. 2:00 79% 50 km
Mo, 06.07. 20:00 48% 50 km
Mo, 06.07. 14:00 78% 45 km
Mo, 06.07. 8:00 90% 60 km
Mo, 06.07. 2:00 97% 40 km
Ortszeit Relative Feuchte Sichtweite
Di, 07.07. 20:00 50% 50 km
Di, 07.07. 19:50 50% -
Di, 07.07. 19:40 48% -
Di, 07.07. 19:30 47% 60 km
Di, 07.07. 19:20 47% -
Di, 07.07. 19:10 46% -
Di, 07.07. 19:00 45% 60 km
Di, 07.07. 18:30 47% >70 km
Di, 07.07. 18:00 49% 45 km
Di, 07.07. 17:30 45% 60 km
Di, 07.07. 17:00 46% 65 km
Ortszeit Niederschlagsmenge Niederschlagsart
Di, 07.07. 20:00 0.0 l/m2 in 12 Std. -
Di, 07.07. 14:00 0.0 l/m2 in 6 Std. -
Di, 07.07. 8:00 0.0 l/m2 in 12 Std. -
Di, 07.07. 2:00 0.0 l/m2 in 6 Std. -
Mo, 06.07. 20:00 1 l/m2 in 12 Std. Regen
Mo, 06.07. 14:00 1 l/m2 in 6 Std. Regen
Mo, 06.07. 8:00 0.0 l/m2 in 12 Std. -
Mo, 06.07. 2:00 0.0 l/m2 in 6 Std. -
Ortszeit Niederschlagsmenge Niederschlagsart
Di, 07.07. 20:00 0.0 l/m2 in 1 Std. -
Di, 07.07. 19:50 keine Meldung -
Di, 07.07. 19:40 keine Meldung -
Di, 07.07. 19:30 0.0 l/m2 in 1 Std. -
Di, 07.07. 19:20 keine Meldung -
Di, 07.07. 19:10 keine Meldung -
Di, 07.07. 19:00 0.0 l/m2 in 1 Std. -
Di, 07.07. 18:30 0.0 l/m2 in 1 Std. -
Di, 07.07. 18:00 0.0 l/m2 in 1 Std. -
Di, 07.07. 17:30 0.0 l/m2 in 1 Std. -
Di, 07.07. 17:00 0.0 l/m2 in 1 Std. -
Ortszeit Stärke Spitze Richtung
km/h Bft. km/h Grad Sektor
Di, 07.07. 20:00 7 2 25 300° NW
Di, 07.07. 14:00 14 3 29 240° SW
Di, 07.07. 8:00 4 1 11 170° S
Di, 07.07. 2:00 7 2 29 100° O
Mo, 06.07. 20:00 18 3 47 290° W
Mo, 06.07. 14:00 7 2 40 230° SW
Mo, 06.07. 8:00 4 1 7 140° SO
Mo, 06.07. 2:00 0 0 18 - -
Ortszeit Stärke Spitze Richtung
km/h Bft. km/h Grad Sektor
Di, 07.07. 20:00 7 2 18 300° NW
Di, 07.07. 19:50 7 2 - 300° NW
Di, 07.07. 19:40 9 2 - 300° NW
Di, 07.07. 19:30 11 2 18 270° W
Di, 07.07. 19:20 11 2 - 270° W
Di, 07.07. 19:10 9 2 - 270° W
Di, 07.07. 19:00 7 2 18 250° W
Di, 07.07. 18:30 11 2 18 250° W
Di, 07.07. 18:00 11 2 20 240° SW
Di, 07.07. 17:30 9 2 19 250° W
Di, 07.07. 17:00 13 3 24 260° W
Ortszeit Untergrenze Bedeckung Gattung
total tief tief mittel hoch
Di, 07.07. 20:00 1800 m 4/8 4/8 - - -
Di, 07.07. 14:00 1500 m 5/8 5/8 - - -
Di, 07.07. 8:00 - 0/8 0/8 - - -
Di, 07.07. 2:00 - 0/8 0/8 - - -
Mo, 06.07. 20:00 1500 m 2/8 2/8 - - -
Mo, 06.07. 14:00 150 m 7/8 7/8 - - -
Mo, 06.07. 8:00 840 m 7/8 7/8 - - -
Mo, 06.07. 2:00 1350 m 2/8 2/8 - - -
Ortszeit Bedeckungsgrad in Achtel und Wolkenuntergrenze
Di, 07.07. 20:00 4(1800m)
Di, 07.07. 19:50 4(1800m)
Di, 07.07. 19:40 2(1800m)
Di, 07.07. 19:30 keine Wolken
Di, 07.07. 19:20 keine Wolken
Di, 07.07. 19:10 keine Wolken
Di, 07.07. 19:00 1(1500m)
Di, 07.07. 18:30 4(1500m)
Di, 07.07. 18:00 5(1500m)
Di, 07.07. 17:30 5(1500m)
Di, 07.07. 17:00 4(1800m)
Ortszeit Luftdruck NN (hPa) Tendenz (hPa in 3 Std.)
Di, 07.07. 20:00 1018 - 0,9
Di, 07.07. 14:00 1020 - 0,7
Di, 07.07. 8:00 1022 + 0,7
Di, 07.07. 2:00 1022 + 1,5
Mo, 06.07. 20:00 1016 + 1,9
Mo, 06.07. 14:00 1015 + 0,9
Mo, 06.07. 8:00 1012 - 1,0
Mo, 06.07. 2:00 1015 - 0,5
Ortszeit Luftdruck NN (hPa) Tendenz (hPa in 3 Std.)
Di, 07.07. 20:00 1018 - 0,9
Di, 07.07. 19:50 1018 keine Meldung
Di, 07.07. 19:40 1018 keine Meldung
Di, 07.07. 19:30 1018 - 1,0
Di, 07.07. 19:20 1018 keine Meldung
Di, 07.07. 19:10 1018 keine Meldung
Di, 07.07. 19:00 1018 - 1,0
Di, 07.07. 18:30 1018 - 1,3
Di, 07.07. 18:00 1018 - 1,1
Di, 07.07. 17:30 1018 - 1,0
Di, 07.07. 17:00 1019 - 0,8
Ortszeit Schneehöhe (cm)
Di, 07.07. 20:00 -
Di, 07.07. 14:00 -
Di, 07.07. 8:00 -
Di, 07.07. 2:00 -
Mo, 06.07. 20:00 -
Mo, 06.07. 14:00 -
Mo, 06.07. 8:00 -
Mo, 06.07. 2:00 -
Ortszeit Schneehöhe (cm)
Di, 07.07. 20:00 -
Di, 07.07. 19:50 -
Di, 07.07. 19:40 -
Di, 07.07. 19:30 -
Di, 07.07. 19:20 -
Di, 07.07. 19:10 -
Di, 07.07. 19:00 -
Di, 07.07. 18:30 -
Di, 07.07. 18:00 -
Di, 07.07. 17:30 -
Di, 07.07. 17:00 -
Link zu dieser Seite / Seite empfehlen

Das Wetter in ...